sensor_id;sensor_type;location;lat;lon;timestamp;P1;durP1;ratioP1;P2;durP2;ratioP2
14732;SDS011;7457;50.960;6.830;2022-09-17T00:00:40;7.95;;;2.13;;
14732;SDS011;7457;50.960;6.830;2022-09-17T00:03:06;4.72;;;2.03;;
14732;SDS011;7457;50.960;6.830;2022-09-17T00:05:33;4.57;;;1.92;;
14732;SDS011;7457;50.960;6.830;2022-09-17T00:08:04;2.50;;;2.10;;
14732;SDS011;7457;50.960;6.830;2022-09-17T00:10:31;6.80;;;2.20;;
14732;SDS011;7457;50.960;6.830;2022-09-17T00:13:01;7.65;;;2.00;;
14732;SDS011;7457;50.960;6.830;2022-09-17T00:15:27;5.00;;;1.98;;
14732;SDS011;7457;50.960;6.830;2022-09-17T00:17:56;6.18;;;2.13;;
14732;SDS011;7457;50.960;6.830;2022-09-17T00:20:23;7.40;;;2.50;;
14732;SDS011;7457;50.960;6.830;2022-09-17T00:22:49;4.65;;;2.10;;
14732;SDS011;7457;50.960;6.830;2022-09-17T00:25:14;7.57;;;2.72;;
14732;SDS011;7457;50.960;6.830;2022-09-17T00:27:40;3.92;;;1.83;;
14732;SDS011;7457;50.960;6.830;2022-09-17T00:30:06;5.38;;;2.10;;
14732;SDS011;7457;50.960;6.830;2022-09-17T00:32:32;5.57;;;1.90;;
14732;SDS011;7457;50.960;6.830;2022-09-17T00:34:58;5.50;;;2.20;;
14732;SDS011;7457;50.960;6.830;2022-09-17T00:37:23;5.80;;;2.20;;
14732;SDS011;7457;50.960;6.830;2022-09-17T00:39:49;5.53;;;2.22;;
14732;SDS011;7457;50.960;6.830;2022-09-17T00:42:15;8.20;;;2.75;;
14732;SDS011;7457;50.960;6.830;2022-09-17T00:47:26;5.13;;;2.42;;
14732;SDS011;7457;50.960;6.830;2022-09-17T00:52:43;9.25;;;2.47;;
14732;SDS011;7457;50.960;6.830;2022-09-17T00:57:47;4.57;;;2.83;;
14732;SDS011;7457;50.960;6.830;2022-09-17T01:00:15;7.25;;;2.60;;
14732;SDS011;7457;50.960;6.830;2022-09-17T01:02:41;4.35;;;2.22;;
14732;SDS011;7457;50.960;6.830;2022-09-17T01:05:08;5.38;;;2.17;;
14732;SDS011;7457;50.960;6.830;2022-09-17T01:07:43;6.88;;;2.67;;
14732;SDS011;7457;50.960;6.830;2022-09-17T01:13:19;6.00;;;2.22;;
14732;SDS011;7457;50.960;6.830;2022-09-17T01:16:05;5.93;;;2.30;;
14732;SDS011;7457;50.960;6.830;2022-09-17T01:21:22;5.82;;;2.47;;
14732;SDS011;7457;50.960;6.830;2022-09-17T01:26:51;5.25;;;2.20;;
14732;SDS011;7457;50.960;6.830;2022-09-17T01:29:32;7.80;;;2.53;;
14732;SDS011;7457;50.960;6.830;2022-09-17T01:32:11;6.20;;;2.35;;
14732;SDS011;7457;50.960;6.830;2022-09-17T01:35:02;6.85;;;2.45;;
14732;SDS011;7457;50.960;6.830;2022-09-17T01:43:31;11.20;;;2.88;;
14732;SDS011;7457;50.960;6.830;2022-09-17T01:46:46;6.32;;;2.35;;
14732;SDS011;7457;50.960;6.830;2022-09-17T01:48:50;4.90;;;2.35;;
14732;SDS011;7457;50.960;6.830;2022-09-17T01:51:22;6.43;;;2.80;;
14732;SDS011;7457;50.960;6.830;2022-09-17T01:57:05;10.63;;;2.55;;
14732;SDS011;7457;50.960;6.830;2022-09-17T01:59:34;7.07;;;2.50;;
14732;SDS011;7457;50.960;6.830;2022-09-17T02:02:20;6.60;;;3.28;;
14732;SDS011;7457;50.960;6.830;2022-09-17T02:04:56;5.95;;;2.67;;
14732;SDS011;7457;50.960;6.830;2022-09-17T02:07:29;10.27;;;3.45;;
14732;SDS011;7457;50.960;6.830;2022-09-17T02:09:59;8.77;;;2.90;;
14732;SDS011;7457;50.960;6.830;2022-09-17T02:12:30;10.32;;;2.67;;
14732;SDS011;7457;50.960;6.830;2022-09-17T02:15:01;7.05;;;2.42;;
14732;SDS011;7457;50.960;6.830;2022-09-17T02:20:13;8.50;;;2.70;;
14732;SDS011;7457;50.960;6.830;2022-09-17T02:22:51;9.25;;;2.10;;
14732;SDS011;7457;50.960;6.830;2022-09-17T02:28:07;11.55;;;2.72;;
14732;SDS011;7457;50.960;6.830;2022-09-17T02:30:47;12.00;;;2.40;;
14732;SDS011;7457;50.960;6.830;2022-09-17T02:33:13;7.70;;;2.60;;
14732;SDS011;7457;50.960;6.830;2022-09-17T02:35:40;7.38;;;2.60;;
14732;SDS011;7457;50.960;6.830;2022-09-17T02:38:08;5.97;;;2.47;;
14732;SDS011;7457;50.960;6.830;2022-09-17T02:40:35;6.15;;;2.42;;
14732;SDS011;7457;50.960;6.830;2022-09-17T02:43:27;5.50;;;1.98;;
14732;SDS011;7457;50.960;6.830;2022-09-17T02:49:17;6.90;;;2.67;;
14732;SDS011;7457;50.960;6.830;2022-09-17T02:52:18;6.93;;;2.50;;
14732;SDS011;7457;50.960;6.830;2022-09-17T02:55:06;4.80;;;2.50;;
14732;SDS011;7457;50.960;6.830;2022-09-17T02:57:59;7.57;;;2.70;;
14732;SDS011;7457;50.960;6.830;2022-09-17T03:00:32;10.70;;;2.95;;
14732;SDS011;7457;50.960;6.830;2022-09-17T03:02:59;15.20;;;2.95;;
14732;SDS011;7457;50.960;6.830;2022-09-17T03:05:29;7.78;;;2.80;;
14732;SDS011;7457;50.960;6.830;2022-09-17T03:07:57;7.50;;;2.45;;
14732;SDS011;7457;50.960;6.830;2022-09-17T03:10:24;8.10;;;2.58;;
14732;SDS011;7457;50.960;6.830;2022-09-17T03:12:52;8.00;;;2.50;;
14732;SDS011;7457;50.960;6.830;2022-09-17T03:15:18;8.50;;;2.85;;
14732;SDS011;7457;50.960;6.830;2022-09-17T03:17:43;8.52;;;2.40;;
14732;SDS011;7457;50.960;6.830;2022-09-17T03:20:09;9.05;;;2.55;;
14732;SDS011;7457;50.960;6.830;2022-09-17T03:22:34;4.57;;;2.33;;
14732;SDS011;7457;50.960;6.830;2022-09-17T03:25:00;8.32;;;2.58;;
14732;SDS011;7457;50.960;6.830;2022-09-17T03:27:26;5.63;;;2.60;;
14732;SDS011;7457;50.960;6.830;2022-09-17T03:29:51;6.68;;;2.88;;
14732;SDS011;7457;50.960;6.830;2022-09-17T03:32:17;5.05;;;2.80;;
14732;SDS011;7457;50.960;6.830;2022-09-17T03:34:43;11.05;;;3.10;;
14732;SDS011;7457;50.960;6.830;2022-09-17T03:37:10;10.15;;;3.00;;
14732;SDS011;7457;50.960;6.830;2022-09-17T03:39:36;8.52;;;2.95;;
14732;SDS011;7457;50.960;6.830;2022-09-17T03:42:02;6.20;;;2.60;;
14732;SDS011;7457;50.960;6.830;2022-09-17T03:44:28;10.02;;;2.97;;
14732;SDS011;7457;50.960;6.830;2022-09-17T03:46:53;6.78;;;2.40;;
14732;SDS011;7457;50.960;6.830;2022-09-17T03:49:19;10.10;;;2.80;;
14732;SDS011;7457;50.960;6.830;2022-09-17T03:51:45;10.13;;;2.95;;
14732;SDS011;7457;50.960;6.830;2022-09-17T03:54:10;9.23;;;3.20;;
14732;SDS011;7457;50.960;6.830;2022-09-17T03:56:36;10.95;;;3.08;;
14732;SDS011;7457;50.960;6.830;2022-09-17T03:59:01;9.32;;;2.80;;
14732;SDS011;7457;50.960;6.830;2022-09-17T04:01:30;12.93;;;3.63;;
14732;SDS011;7457;50.960;6.830;2022-09-17T04:03:55;11.93;;;3.08;;
14732;SDS011;7457;50.960;6.830;2022-09-17T04:06:21;10.00;;;3.05;;
14732;SDS011;7457;50.960;6.830;2022-09-17T04:08:47;8.27;;;3.22;;
14732;SDS011;7457;50.960;6.830;2022-09-17T04:11:12;7.57;;;2.88;;
14732;SDS011;7457;50.960;6.830;2022-09-17T04:13:38;11.15;;;2.75;;
14732;SDS011;7457;50.960;6.830;2022-09-17T04:16:04;10.15;;;3.83;;
14732;SDS011;7457;50.960;6.830;2022-09-17T04:18:30;12.57;;;2.90;;
14732;SDS011;7457;50.960;6.830;2022-09-17T04:20:55;12.10;;;3.10;;
14732;SDS011;7457;50.960;6.830;2022-09-17T04:23:21;8.85;;;2.63;;
14732;SDS011;7457;50.960;6.830;2022-09-17T04:25:47;9.13;;;2.85;;
14732;SDS011;7457;50.960;6.830;2022-09-17T04:28:13;9.45;;;3.13;;
14732;SDS011;7457;50.960;6.830;2022-09-17T04:30:38;7.53;;;2.80;;
14732;SDS011;7457;50.960;6.830;2022-09-17T04:33:06;13.68;;;2.95;;
14732;SDS011;7457;50.960;6.830;2022-09-17T04:35:33;9.63;;;4.00;;
14732;SDS011;7457;50.960;6.830;2022-09-17T04:37:58;7.85;;;2.40;;
14732;SDS011;7457;50.960;6.830;2022-09-17T04:40:24;6.93;;;2.50;;
14732;SDS011;7457;50.960;6.830;2022-09-17T04:42:51;7.70;;;2.50;;
14732;SDS011;7457;50.960;6.830;2022-09-17T04:45:18;9.35;;;2.35;;
14732;SDS011;7457;50.960;6.830;2022-09-17T04:47:44;6.93;;;2.42;;
14732;SDS011;7457;50.960;6.830;2022-09-17T04:50:10;8.15;;;2.60;;
14732;SDS011;7457;50.960;6.830;2022-09-17T04:52:35;5.55;;;2.67;;
14732;SDS011;7457;50.960;6.830;2022-09-17T04:55:01;10.68;;;3.03;;
14732;SDS011;7457;50.960;6.830;2022-09-17T04:57:27;9.68;;;2.40;;
14732;SDS011;7457;50.960;6.830;2022-09-17T04:59:52;6.82;;;2.75;;
14732;SDS011;7457;50.960;6.830;2022-09-17T05:02:18;7.57;;;2.25;;
14732;SDS011;7457;50.960;6.830;2022-09-17T05:04:43;14.13;;;3.55;;
14732;SDS011;7457;50.960;6.830;2022-09-17T05:07:09;6.75;;;2.85;;
14732;SDS011;7457;50.960;6.830;2022-09-17T05:09:35;6.88;;;2.20;;
14732;SDS011;7457;50.960;6.830;2022-09-17T05:12:00;8.70;;;3.38;;
14732;SDS011;7457;50.960;6.830;2022-09-17T05:14:26;5.63;;;2.13;;
14732;SDS011;7457;50.960;6.830;2022-09-17T05:16:52;7.05;;;2.90;;
14732;SDS011;7457;50.960;6.830;2022-09-17T05:19:17;11.52;;;2.15;;
14732;SDS011;7457;50.960;6.830;2022-09-17T05:21:43;8.32;;;2.35;;
14732;SDS011;7457;50.960;6.830;2022-09-17T05:24:08;7.47;;;2.95;;
14732;SDS011;7457;50.960;6.830;2022-09-17T05:26:34;7.63;;;2.85;;
14732;SDS011;7457;50.960;6.830;2022-09-17T05:28:59;10.85;;;2.67;;
14732;SDS011;7457;50.960;6.830;2022-09-17T05:31:25;10.30;;;2.40;;
14732;SDS011;7457;50.960;6.830;2022-09-17T05:33:50;6.68;;;1.95;;
14732;SDS011;7457;50.960;6.830;2022-09-17T05:36:16;4.85;;;1.70;;
14732;SDS011;7457;50.960;6.830;2022-09-17T05:38:42;15.30;;;2.50;;
14732;SDS011;7457;50.960;6.830;2022-09-17T05:41:08;9.45;;;2.22;;
14732;SDS011;7457;50.960;6.830;2022-09-17T05:43:33;6.80;;;2.40;;
14732;SDS011;7457;50.960;6.830;2022-09-17T05:46:00;6.60;;;2.50;;
14732;SDS011;7457;50.960;6.830;2022-09-17T05:48:30;7.22;;;3.03;;
14732;SDS011;7457;50.960;6.830;2022-09-17T05:50:55;15.48;;;2.22;;
14732;SDS011;7457;50.960;6.830;2022-09-17T05:53:21;9.15;;;2.38;;
14732;SDS011;7457;50.960;6.830;2022-09-17T05:55:47;8.43;;;1.83;;
14732;SDS011;7457;50.960;6.830;2022-09-17T05:58:13;7.78;;;2.15;;
14732;SDS011;7457;50.960;6.830;2022-09-17T06:00:40;6.35;;;2.72;;
14732;SDS011;7457;50.960;6.830;2022-09-17T06:03:11;7.05;;;2.08;;
14732;SDS011;7457;50.960;6.830;2022-09-17T06:05:39;3.05;;;1.70;;
14732;SDS011;7457;50.960;6.830;2022-09-17T06:08:05;10.80;;;1.77;;
14732;SDS011;7457;50.960;6.830;2022-09-17T06:10:31;4.60;;;2.17;;
14732;SDS011;7457;50.960;6.830;2022-09-17T06:13:00;6.70;;;1.65;;
14732;SDS011;7457;50.960;6.830;2022-09-17T06:15:26;6.03;;;1.70;;
14732;SDS011;7457;50.960;6.830;2022-09-17T06:17:52;4.97;;;1.85;;
14732;SDS011;7457;50.960;6.830;2022-09-17T06:20:18;6.30;;;1.77;;
14732;SDS011;7457;50.960;6.830;2022-09-17T06:22:44;6.43;;;1.90;;
14732;SDS011;7457;50.960;6.830;2022-09-17T06:25:11;7.93;;;2.10;;
14732;SDS011;7457;50.960;6.830;2022-09-17T06:27:37;7.22;;;1.90;;
14732;SDS011;7457;50.960;6.830;2022-09-17T06:30:03;7.70;;;2.30;;
14732;SDS011;7457;50.960;6.830;2022-09-17T06:32:31;5.32;;;1.55;;
14732;SDS011;7457;50.960;6.830;2022-09-17T06:34:57;8.20;;;1.90;;
14732;SDS011;7457;50.960;6.830;2022-09-17T06:37:26;6.55;;;1.85;;
14732;SDS011;7457;50.960;6.830;2022-09-17T06:39:53;7.95;;;1.70;;
14732;SDS011;7457;50.960;6.830;2022-09-17T06:42:18;3.72;;;1.83;;
14732;SDS011;7457;50.960;6.830;2022-09-17T06:44:44;6.95;;;2.50;;
14732;SDS011;7457;50.960;6.830;2022-09-17T06:47:09;6.70;;;2.10;;
14732;SDS011;7457;50.960;6.830;2022-09-17T06:49:35;8.18;;;2.25;;
14732;SDS011;7457;50.960;6.830;2022-09-17T06:52:01;9.50;;;2.35;;
14732;SDS011;7457;50.960;6.830;2022-09-17T06:54:28;5.47;;;1.63;;
14732;SDS011;7457;50.960;6.830;2022-09-17T06:56:53;5.65;;;1.80;;
14732;SDS011;7457;50.960;6.830;2022-09-17T06:59:19;5.30;;;1.50;;
14732;SDS011;7457;50.960;6.830;2022-09-17T07:01:45;8.52;;;2.08;;
14732;SDS011;7457;50.960;6.830;2022-09-17T07:04:11;11.00;;;2.33;;
14732;SDS011;7457;50.960;6.830;2022-09-17T07:06:37;8.88;;;3.05;;
14732;SDS011;7457;50.960;6.830;2022-09-17T07:09:03;12.82;;;4.32;;
14732;SDS011;7457;50.960;6.830;2022-09-17T07:11:29;6.65;;;2.10;;
14732;SDS011;7457;50.960;6.830;2022-09-17T07:13:55;8.02;;;2.13;;
14732;SDS011;7457;50.960;6.830;2022-09-17T07:16:21;4.60;;;1.52;;
14732;SDS011;7457;50.960;6.830;2022-09-17T07:18:47;4.93;;;1.60;;
14732;SDS011;7457;50.960;6.830;2022-09-17T07:21:13;6.07;;;1.40;;
14732;SDS011;7457;50.960;6.830;2022-09-17T07:23:39;3.33;;;1.33;;
14732;SDS011;7457;50.960;6.830;2022-09-17T07:26:12;7.55;;;1.90;;
14732;SDS011;7457;50.960;6.830;2022-09-17T07:28:39;6.97;;;1.95;;
14732;SDS011;7457;50.960;6.830;2022-09-17T07:31:06;6.18;;;1.73;;
14732;SDS011;7457;50.960;6.830;2022-09-17T07:33:35;8.60;;;1.75;;
14732;SDS011;7457;50.960;6.830;2022-09-17T07:36:02;9.88;;;2.75;;
14732;SDS011;7457;50.960;6.830;2022-09-17T07:38:29;11.82;;;2.53;;
14732;SDS011;7457;50.960;6.830;2022-09-17T07:43:21;8.65;;;1.95;;
14732;SDS011;7457;50.960;6.830;2022-09-17T07:45:48;3.63;;;1.95;;
14732;SDS011;7457;50.960;6.830;2022-09-17T07:48:13;10.63;;;2.10;;
14732;SDS011;7457;50.960;6.830;2022-09-17T07:50:39;8.88;;;2.35;;
14732;SDS011;7457;50.960;6.830;2022-09-17T07:53:04;6.90;;;1.88;;
14732;SDS011;7457;50.960;6.830;2022-09-17T07:55:30;5.03;;;1.90;;
14732;SDS011;7457;50.960;6.830;2022-09-17T07:57:56;6.78;;;2.97;;
14732;SDS011;7457;50.960;6.830;2022-09-17T08:00:22;9.23;;;2.58;;
14732;SDS011;7457;50.960;6.830;2022-09-17T08:02:53;9.02;;;1.98;;
14732;SDS011;7457;50.960;6.830;2022-09-17T08:05:20;9.90;;;2.05;;
14732;SDS011;7457;50.960;6.830;2022-09-17T08:07:52;5.03;;;1.45;;
14732;SDS011;7457;50.960;6.830;2022-09-17T08:10:19;4.57;;;1.80;;
14732;SDS011;7457;50.960;6.830;2022-09-17T08:12:49;5.78;;;1.50;;
14732;SDS011;7457;50.960;6.830;2022-09-17T08:15:18;8.88;;;2.08;;
14732;SDS011;7457;50.960;6.830;2022-09-17T08:17:46;6.35;;;2.30;;
14732;SDS011;7457;50.960;6.830;2022-09-17T08:20:13;8.82;;;2.10;;
14732;SDS011;7457;50.960;6.830;2022-09-17T08:22:40;11.50;;;2.17;;
14732;SDS011;7457;50.960;6.830;2022-09-17T08:25:06;11.50;;;1.73;;
14732;SDS011;7457;50.960;6.830;2022-09-17T08:27:33;6.10;;;1.88;;
14732;SDS011;7457;50.960;6.830;2022-09-17T08:29:59;5.53;;;1.45;;
14732;SDS011;7457;50.960;6.830;2022-09-17T08:32:25;5.10;;;1.15;;
14732;SDS011;7457;50.960;6.830;2022-09-17T08:34:53;4.05;;;1.95;;
14732;SDS011;7457;50.960;6.830;2022-09-17T08:37:19;9.35;;;2.25;;
14732;SDS011;7457;50.960;6.830;2022-09-17T08:39:44;4.35;;;1.60;;
14732;SDS011;7457;50.960;6.830;2022-09-17T08:44:49;4.75;;;1.88;;
14732;SDS011;7457;50.960;6.830;2022-09-17T08:47:26;5.72;;;1.90;;
14732;SDS011;7457;50.960;6.830;2022-09-17T08:49:59;7.45;;;1.98;;
14732;SDS011;7457;50.960;6.830;2022-09-17T09:06:41;7.03;;;2.50;;
14732;SDS011;7457;50.960;6.830;2022-09-17T09:09:30;6.70;;;2.03;;
14732;SDS011;7457;50.960;6.830;2022-09-17T09:12:04;4.38;;;1.52;;
14732;SDS011;7457;50.960;6.830;2022-09-17T09:14:35;4.72;;;1.80;;
14732;SDS011;7457;50.960;6.830;2022-09-17T09:17:07;4.70;;;1.38;;
14732;SDS011;7457;50.960;6.830;2022-09-17T09:19:41;6.55;;;1.80;;
14732;SDS011;7457;50.960;6.830;2022-09-17T09:27:27;6.35;;;1.70;;
14732;SDS011;7457;50.960;6.830;2022-09-17T09:30:13;7.20;;;1.70;;
14732;SDS011;7457;50.960;6.830;2022-09-17T09:37:44;5.75;;;1.70;;
14732;SDS011;7457;50.960;6.830;2022-09-17T09:40:32;8.80;;;2.03;;
14732;SDS011;7457;50.960;6.830;2022-09-17T09:42:59;5.68;;;1.80;;
14732;SDS011;7457;50.960;6.830;2022-09-17T09:45:42;6.75;;;1.65;;
14732;SDS011;7457;50.960;6.830;2022-09-17T09:53:55;4.72;;;1.52;;
14732;SDS011;7457;50.960;6.830;2022-09-17T09:59:11;7.60;;;2.00;;
14732;SDS011;7457;50.960;6.830;2022-09-17T10:01:41;5.82;;;1.55;;
14732;SDS011;7457;50.960;6.830;2022-09-17T10:06:52;2.50;;;1.10;;
14732;SDS011;7457;50.960;6.830;2022-09-17T10:09:29;4.53;;;1.15;;
14732;SDS011;7457;50.960;6.830;2022-09-17T10:14:28;4.03;;;0.82;;
14732;SDS011;7457;50.960;6.830;2022-09-17T10:19:46;4.05;;;1.30;;
14732;SDS011;7457;50.960;6.830;2022-09-17T10:22:34;5.57;;;1.40;;
14732;SDS011;7457;50.960;6.830;2022-09-17T10:25:19;6.65;;;1.20;;
14732;SDS011;7457;50.960;6.830;2022-09-17T10:27:55;3.95;;;1.10;;
14732;SDS011;7457;50.960;6.830;2022-09-17T10:30:23;2.55;;;1.17;;
14732;SDS011;7457;50.960;6.830;2022-09-17T10:33:14;3.65;;;1.65;;
14732;SDS011;7457;50.960;6.830;2022-09-17T10:35:38;3.33;;;1.30;;
14732;SDS011;7457;50.960;6.830;2022-09-17T10:38:04;3.75;;;1.30;;
14732;SDS011;7457;50.960;6.830;2022-09-17T10:40:30;3.90;;;1.05;;
14732;SDS011;7457;50.960;6.830;2022-09-17T10:45:39;8.32;;;1.30;;
14732;SDS011;7457;50.960;6.830;2022-09-17T10:48:13;5.53;;;2.05;;
14732;SDS011;7457;50.960;6.830;2022-09-17T10:50:41;6.18;;;1.65;;
14732;SDS011;7457;50.960;6.830;2022-09-17T10:53:17;4.75;;;1.23;;
14732;SDS011;7457;50.960;6.830;2022-09-17T10:58:42;3.47;;;0.95;;
14732;SDS011;7457;50.960;6.830;2022-09-17T11:07:31;3.60;;;1.08;;
14732;SDS011;7457;50.960;6.830;2022-09-17T11:25:59;3.30;;;1.05;;
14732;SDS011;7457;50.960;6.830;2022-09-17T11:28:54;4.22;;;1.10;;
14732;SDS011;7457;50.960;6.830;2022-09-17T11:34:50;4.22;;;1.10;;
14732;SDS011;7457;50.960;6.830;2022-09-17T11:37:21;4.13;;;1.27;;
14732;SDS011;7457;50.960;6.830;2022-09-17T11:39:58;2.47;;;0.88;;
14732;SDS011;7457;50.960;6.830;2022-09-17T11:42:36;1.80;;;0.68;;
14732;SDS011;7457;50.960;6.830;2022-09-17T11:45:19;4.25;;;1.10;;
14732;SDS011;7457;50.960;6.830;2022-09-17T11:48:11;2.80;;;0.90;;
14732;SDS011;7457;50.960;6.830;2022-09-17T11:50:44;2.95;;;0.82;;
14732;SDS011;7457;50.960;6.830;2022-09-17T11:58:53;5.60;;;2.85;;
14732;SDS011;7457;50.960;6.830;2022-09-17T12:07:00;5.70;;;2.83;;
14732;SDS011;7457;50.960;6.830;2022-09-17T12:09:34;4.00;;;1.63;;
14732;SDS011;7457;50.960;6.830;2022-09-17T12:17:20;4.57;;;1.58;;
14732;SDS011;7457;50.960;6.830;2022-09-17T12:20:06;2.95;;;1.10;;
14732;SDS011;7457;50.960;6.830;2022-09-17T12:22:40;4.50;;;1.73;;
14732;SDS011;7457;50.960;6.830;2022-09-17T12:25:10;5.05;;;1.25;;
14732;SDS011;7457;50.960;6.830;2022-09-17T12:27:39;5.25;;;2.38;;
14732;SDS011;7457;50.960;6.830;2022-09-17T12:30:30;2.33;;;1.42;;
14732;SDS011;7457;50.960;6.830;2022-09-17T13:00:21;3.95;;;1.38;;
14732;SDS011;7457;50.960;6.830;2022-09-17T13:02:49;3.65;;;1.33;;
14732;SDS011;7457;50.960;6.830;2022-09-17T13:16:58;4.63;;;1.85;;
14732;SDS011;7457;50.960;6.830;2022-09-17T13:22:11;2.88;;;1.45;;
14732;SDS011;7457;50.960;6.830;2022-09-17T13:24:42;9.27;;;3.50;;
14732;SDS011;7457;50.960;6.830;2022-09-17T13:27:21;3.20;;;1.77;;
14732;SDS011;7457;50.960;6.830;2022-09-17T13:34:56;4.75;;;1.95;;
14732;SDS011;7457;50.960;6.830;2022-09-17T13:37:28;7.95;;;1.92;;
14732;SDS011;7457;50.960;6.830;2022-09-17T13:39:54;4.00;;;1.27;;
14732;SDS011;7457;50.960;6.830;2022-09-17T13:45:10;4.20;;;2.38;;
14732;SDS011;7457;50.960;6.830;2022-09-17T13:52:51;6.13;;;1.83;;
14732;SDS011;7457;50.960;6.830;2022-09-17T13:55:30;3.47;;;1.80;;
14732;SDS011;7457;50.960;6.830;2022-09-17T13:58:19;6.65;;;1.70;;
14732;SDS011;7457;50.960;6.830;2022-09-17T14:19:04;12.15;;;5.97;;
14732;SDS011;7457;50.960;6.830;2022-09-17T14:22:16;10.82;;;6.15;;
14732;SDS011;7457;50.960;6.830;2022-09-17T14:24:51;7.88;;;4.07;;
14732;SDS011;7457;50.960;6.830;2022-09-17T14:30:17;4.28;;;2.00;;
14732;SDS011;7457;50.960;6.830;2022-09-17T14:35:44;3.58;;;1.67;;
14732;SDS011;7457;50.960;6.830;2022-09-17T14:40:46;10.13;;;1.45;;
14732;SDS011;7457;50.960;6.830;2022-09-17T14:45:55;6.28;;;1.98;;
14732;SDS011;7457;50.960;6.830;2022-09-17T14:53:45;7.82;;;2.60;;
14732;SDS011;7457;50.960;6.830;2022-09-17T14:56:14;6.75;;;2.22;;
14732;SDS011;7457;50.960;6.830;2022-09-17T14:58:46;7.50;;;4.25;;
14732;SDS011;7457;50.960;6.830;2022-09-17T15:04:08;5.50;;;2.58;;
14732;SDS011;7457;50.960;6.830;2022-09-17T15:06:43;3.80;;;2.00;;
14732;SDS011;7457;50.960;6.830;2022-09-17T15:09:13;7.75;;;2.22;;
14732;SDS011;7457;50.960;6.830;2022-09-17T15:11:40;2.47;;;1.75;;
14732;SDS011;7457;50.960;6.830;2022-09-17T15:14:09;6.90;;;2.10;;
14732;SDS011;7457;50.960;6.830;2022-09-17T15:16:46;4.38;;;2.70;;
14732;SDS011;7457;50.960;6.830;2022-09-17T15:19:13;6.85;;;3.58;;
14732;SDS011;7457;50.960;6.830;2022-09-17T15:21:47;8.93;;;4.38;;
14732;SDS011;7457;50.960;6.830;2022-09-17T15:27:21;3.47;;;2.30;;
14732;SDS011;7457;50.960;6.830;2022-09-17T15:29:55;6.82;;;2.35;;
14732;SDS011;7457;50.960;6.830;2022-09-17T15:32:47;4.70;;;1.98;;
14732;SDS011;7457;50.960;6.830;2022-09-17T15:37:51;7.18;;;2.28;;
14732;SDS011;7457;50.960;6.830;2022-09-17T15:40:23;5.90;;;2.70;;
14732;SDS011;7457;50.960;6.830;2022-09-17T15:43:00;8.05;;;2.80;;
14732;SDS011;7457;50.960;6.830;2022-09-17T15:45:45;7.25;;;2.63;;
14732;SDS011;7457;50.960;6.830;2022-09-17T15:50:53;7.20;;;3.47;;
14732;SDS011;7457;50.960;6.830;2022-09-17T15:53:25;16.25;;;3.95;;
14732;SDS011;7457;50.960;6.830;2022-09-17T16:08:50;9.43;;;2.25;;
14732;SDS011;7457;50.960;6.830;2022-09-17T16:11:30;6.95;;;2.55;;
14732;SDS011;7457;50.960;6.830;2022-09-17T16:13:57;8.15;;;2.50;;
14732;SDS011;7457;50.960;6.830;2022-09-17T16:18:58;11.20;;;2.17;;
14732;SDS011;7457;50.960;6.830;2022-09-17T16:21:23;8.35;;;3.08;;
14732;SDS011;7457;50.960;6.830;2022-09-17T16:23:49;3.95;;;1.95;;
14732;SDS011;7457;50.960;6.830;2022-09-17T16:26:18;9.50;;;2.25;;
14732;SDS011;7457;50.960;6.830;2022-09-17T16:28:45;4.63;;;1.83;;
14732;SDS011;7457;50.960;6.830;2022-09-17T16:31:14;5.32;;;2.17;;
14732;SDS011;7457;50.960;6.830;2022-09-17T16:33:42;7.82;;;2.20;;
14732;SDS011;7457;50.960;6.830;2022-09-17T16:36:08;5.63;;;2.05;;
14732;SDS011;7457;50.960;6.830;2022-09-17T16:38:33;8.48;;;1.85;;
14732;SDS011;7457;50.960;6.830;2022-09-17T16:41:03;7.53;;;1.80;;
14732;SDS011;7457;50.960;6.830;2022-09-17T16:43:29;5.00;;;1.58;;
14732;SDS011;7457;50.960;6.830;2022-09-17T16:48:28;12.85;;;4.68;;
14732;SDS011;7457;50.960;6.830;2022-09-17T16:50:53;16.35;;;8.20;;
14732;SDS011;7457;50.960;6.830;2022-09-17T16:53:19;8.32;;;4.50;;
14732;SDS011;7457;50.960;6.830;2022-09-17T16:55:45;5.05;;;1.83;;
14732;SDS011;7457;50.960;6.830;2022-09-17T16:58:11;7.90;;;2.35;;
14732;SDS011;7457;50.960;6.830;2022-09-17T17:00:36;8.18;;;3.38;;
14732;SDS011;7457;50.960;6.830;2022-09-17T17:03:02;17.80;;;10.80;;
14732;SDS011;7457;50.960;6.830;2022-09-17T17:05:29;19.33;;;10.07;;
14732;SDS011;7457;50.960;6.830;2022-09-17T17:07:55;12.68;;;6.65;;
14732;SDS011;7457;50.960;6.830;2022-09-17T17:10:22;10.63;;;3.53;;
14732;SDS011;7457;50.960;6.830;2022-09-17T17:12:50;9.98;;;2.38;;
14732;SDS011;7457;50.960;6.830;2022-09-17T17:15:16;5.95;;;2.17;;
14732;SDS011;7457;50.960;6.830;2022-09-17T17:17:42;3.88;;;1.98;;
14732;SDS011;7457;50.960;6.830;2022-09-17T17:20:08;9.63;;;2.85;;
14732;SDS011;7457;50.960;6.830;2022-09-17T17:22:34;9.68;;;3.05;;
14732;SDS011;7457;50.960;6.830;2022-09-17T17:25:02;10.70;;;3.63;;
14732;SDS011;7457;50.960;6.830;2022-09-17T17:27:29;13.68;;;3.28;;
14732;SDS011;7457;50.960;6.830;2022-09-17T17:29:55;11.65;;;2.95;;
14732;SDS011;7457;50.960;6.830;2022-09-17T17:32:20;10.30;;;3.33;;
14732;SDS011;7457;50.960;6.830;2022-09-17T17:34:46;13.27;;;3.20;;
14732;SDS011;7457;50.960;6.830;2022-09-17T17:37:12;9.40;;;2.88;;
14732;SDS011;7457;50.960;6.830;2022-09-17T17:39:38;6.07;;;2.78;;
14732;SDS011;7457;50.960;6.830;2022-09-17T17:42:04;7.38;;;3.30;;
14732;SDS011;7457;50.960;6.830;2022-09-17T17:44:30;13.50;;;2.50;;
14732;SDS011;7457;50.960;6.830;2022-09-17T17:46:56;7.93;;;2.45;;
14732;SDS011;7457;50.960;6.830;2022-09-17T17:49:22;9.23;;;3.03;;
14732;SDS011;7457;50.960;6.830;2022-09-17T17:51:47;6.75;;;2.90;;
14732;SDS011;7457;50.960;6.830;2022-09-17T17:54:13;10.02;;;3.00;;
14732;SDS011;7457;50.960;6.830;2022-09-17T17:56:39;11.57;;;3.00;;
14732;SDS011;7457;50.960;6.830;2022-09-17T17:59:04;8.10;;;3.00;;
14732;SDS011;7457;50.960;6.830;2022-09-17T18:01:30;10.75;;;4.18;;
14732;SDS011;7457;50.960;6.830;2022-09-17T18:03:59;8.90;;;2.67;;
14732;SDS011;7457;50.960;6.830;2022-09-17T18:06:27;10.18;;;2.38;;
14732;SDS011;7457;50.960;6.830;2022-09-17T18:08:53;3.50;;;2.00;;
14732;SDS011;7457;50.960;6.830;2022-09-17T18:11:18;5.78;;;2.10;;
14732;SDS011;7457;50.960;6.830;2022-09-17T18:13:45;8.48;;;1.77;;
14732;SDS011;7457;50.960;6.830;2022-09-17T18:16:15;4.78;;;1.85;;
14732;SDS011;7457;50.960;6.830;2022-09-17T18:18:42;9.00;;;2.05;;
14732;SDS011;7457;50.960;6.830;2022-09-17T18:21:10;9.00;;;2.03;;
14732;SDS011;7457;50.960;6.830;2022-09-17T18:23:38;13.05;;;1.98;;
14732;SDS011;7457;50.960;6.830;2022-09-17T18:26:07;6.15;;;2.15;;
14732;SDS011;7457;50.960;6.830;2022-09-17T18:28:37;12.75;;;2.50;;
14732;SDS011;7457;50.960;6.830;2022-09-17T18:31:04;13.10;;;2.80;;
14732;SDS011;7457;50.960;6.830;2022-09-17T18:33:31;10.63;;;3.20;;
14732;SDS011;7457;50.960;6.830;2022-09-17T18:35:59;11.02;;;2.90;;
14732;SDS011;7457;50.960;6.830;2022-09-17T18:38:26;9.55;;;3.13;;
14732;SDS011;7457;50.960;6.830;2022-09-17T18:40:52;5.13;;;2.50;;
14732;SDS011;7457;50.960;6.830;2022-09-17T18:43:18;23.42;;;3.20;;
14732;SDS011;7457;50.960;6.830;2022-09-17T18:45:53;6.47;;;2.60;;
14732;SDS011;7457;50.960;6.830;2022-09-17T18:48:19;4.93;;;2.60;;
14732;SDS011;7457;50.960;6.830;2022-09-17T18:50:58;11.10;;;2.60;;
14732;SDS011;7457;50.960;6.830;2022-09-17T18:53:29;5.80;;;2.50;;
14732;SDS011;7457;50.960;6.830;2022-09-17T18:55:58;6.97;;;2.60;;
14732;SDS011;7457;50.960;6.830;2022-09-17T18:58:28;4.93;;;2.17;;
14732;SDS011;7457;50.960;6.830;2022-09-17T19:00:53;9.82;;;2.03;;
14732;SDS011;7457;50.960;6.830;2022-09-17T19:03:19;11.27;;;2.17;;
14732;SDS011;7457;50.960;6.830;2022-09-17T19:05:45;9.70;;;2.60;;
14732;SDS011;7457;50.960;6.830;2022-09-17T19:08:10;5.97;;;2.00;;
14732;SDS011;7457;50.960;6.830;2022-09-17T19:10:36;10.65;;;3.40;;
14732;SDS011;7457;50.960;6.830;2022-09-17T19:13:02;8.00;;;2.63;;
14732;SDS011;7457;50.960;6.830;2022-09-17T19:15:29;9.73;;;2.53;;
14732;SDS011;7457;50.960;6.830;2022-09-17T19:17:54;9.70;;;2.40;;